Flight Track Log - Related Links

Times and Time Zones

All times are in EDT time to prevent confusion due to time zone crossing. See the SWA631 flight status page for this flight to view local times or setup timezone preferences in your user account.

Time Position Orientation Groundspeed Altitude Reporting Facility
EDT Latitude Longitude Course Direction KTS MPH feet Rate Location/Type
Sun 09:17:21 PM 41.2931 -95.8919 145° Southeast 176 203 1,500  Level Minneapolis Center
Sun 09:17:45 PM 41.2772 -95.8772 145° Southeast 165 190 2,500 2,214 Climbing Minneapolis Center
Sun 09:18:45 PM 41.2381 -95.8236 134° Southeast 237 273 4,600 1,859 Climbing Minneapolis Center
Sun 09:18:56 PM 41.2383 -95.8189 86° East 207 238 4,700 2,083 Climbing Minneapolis Center
Sun 09:19:57 PM 41.2231 -95.7219 102° East 245 282 7,100 2,829 Climbing Minneapolis Center
Sun 09:20:59 PM 41.2036 -95.6089 103° East 282 325 10,500 2,976 Climbing Minneapolis Center
Sun 09:22:00 PM 41.1769 -95.4522 103° East 335 386 13,200 2,878 Climbing Minneapolis Center
Sun 09:23:02 PM 41.1519 -95.3042 103° East 398 458 16,400 2,976 Climbing Minneapolis Center
Sun 09:24:03 PM 41.1253 -95.1531 103° East 418 481 19,300 2,607 Climbing Minneapolis Center
Sun 09:25:04 PM 41.0978 -94.9931 103° East 436 502 21,700 2,293 Climbing Minneapolis Center
Sun 09:26:06 PM 41.0683 -94.8281 103° East 455 524 24,000 2,146 Climbing Minneapolis Center
Sun 09:27:07 PM 41.0394 -94.6578 103° East 467 537 26,100 2,016 Climbing Minneapolis Center
Sun 09:28:08 PM 41.0050 -94.4717 104° East 485 558 28,100 1,756 Climbing Minneapolis Center
Sun 09:29:10 PM 40.9742 -94.2950 103° East 493 567 29,700 1,415 Climbing Minneapolis Center
Sun 09:30:11 PM 40.9414 -94.1147 103° East 502 578 31,000 639 Climbing Minneapolis Center
Sun 09:31:12 PM 40.9078 -93.9347 104° East 503 579 31,000  Level Minneapolis Center
Sun 09:32:14 PM 40.8736 -93.7567 104° East 504 580 31,000  Level Minneapolis Center
Sun 09:33:15 PM 40.8403 -93.5406 101° East 504 580 31,000  Level Minneapolis Center
Sun 09:34:16 PM 40.8561 -93.3589 83° East 503 579 31,000  Level Minneapolis Center
Sun 09:35:17 PM 40.8733 -93.1769 83° East 503 579 31,000  Level Minneapolis Center
Sun 09:36:12 PM 40.8861 -93.0308 83° East 500 575 31,000  Level Chicago Center
Sun 09:37:14 PM 40.9019 -92.8475 83° East 501 577 31,000  Level Chicago Center
Sun 09:38:15 PM 40.9206 -92.6267 84° East 502 578 31,000  Level Chicago Center
Sun 09:39:17 PM 40.9358 -92.4422 84° East 503 579 31,000  Level Chicago Center
Sun 09:40:19 PM 40.9508 -92.2567 84° East 505 581 31,000  Level Chicago Center
Sun 09:41:20 PM 40.9653 -92.0717 84° East 505 581 31,000  Level Chicago Center
Sun 09:42:22 PM 40.9794 -91.8897 84° East 505 581 31,000  Level Chicago Center
Sun 09:43:23 PM 40.9933 -91.7064 84° East 505 581 31,000  Level Chicago Center
Sun 09:44:25 PM 41.0089 -91.4950 84° East 504 580 31,000 -195 Level Chicago Center
Sun 09:45:26 PM 41.0222 -91.3111 84° East 503 579 30,600 -683 Descending Chicago Center
Sun 09:46:28 PM 41.0344 -91.1283 85° East 503 579 29,600 -1,512 Descending Chicago Center
Sun 09:47:29 PM 41.0475 -90.9472 84° East 499 574 27,500 -1,512 Descending Chicago Center
Sun 09:48:31 PM 41.0600 -90.7689 85° East 488 562 26,500 -976 Descending Chicago Center
Sun 09:49:32 PM 41.0728 -90.5900 85° East 489 563 25,500 -976 Descending Chicago Center
Sun 09:50:34 PM 41.0881 -90.4111 83° East 487 560 24,500 -976 Descending Chicago Center
Sun 09:51:35 PM 41.1136 -90.2392 79° East 475 547 23,500 -984 Descending Chicago Center
Sun 09:52:36 PM 41.1411 -90.0706 78° East 469 540 22,500 -976 Descending Chicago Center
Sun 09:53:38 PM 41.1664 -89.9058 78° East 457 526 21,500 -976 Descending Chicago Center
Sun 09:54:39 PM 41.1917 -89.7425 78° East 452 520 20,500 -1,082 Descending Chicago Center
Sun 09:55:40 PM 41.2219 -89.5519 78° East 442 509 19,300 -1,268 Descending Chicago Center
Sun 09:56:42 PM 41.2447 -89.3958 79° East 433 498 17,900 -1,805 Descending Chicago Center
Sun 09:57:43 PM 41.2681 -89.2425 79° East 427 491 15,600 -2,311 Descending Chicago Center
Sun 09:58:44 PM 41.2889 -89.0906 80° East 414 476 13,200 -2,293 Descending Chicago Center
Sun 09:59:46 PM 41.3108 -88.9439 79° East 409 471 10,900 -1,512 Descending Chicago Center
Sun 10:00:47 PM 41.3331 -88.7961 79° East 373 429 10,100 -836 Descending Chicago Center
Sun 10:01:48 PM 41.3494 -88.6814 79° East 315 362 9,200 -1,073 Descending Chicago Center
Sun 10:02:50 PM 41.3719 -88.5739 74° East 301 346 7,900 -1,171 Descending Chicago Center
Sun 10:03:51 PM 41.4164 -88.4747 59° Northeast 293 337 6,800 -934 Descending Chicago Center
Sun 10:04:52 PM 41.4553 -88.3814 61° Northeast 289 333 6,000 -537 Descending Chicago Center
Sun 10:05:54 PM 41.4939 -88.2919 60° Northeast 285 328 5,700 -439 Descending Chicago Center
Sun 10:06:55 PM 41.5300 -88.2078 60° Northeast 262 302 5,100 -639 Descending Chicago Center
Sun 10:07:56 PM 41.5631 -88.1283 61° Northeast 231 266 4,400 -537 Descending Chicago Center
Sun 10:08:58 PM 41.5928 -88.0592 60° Northeast 220 253 4,000 -195 Descending Chicago Center
Sun 10:09:59 PM 41.6211 -87.9925 60° Northeast 209 241 4,000  Level Chicago Center
Sun 10:11:00 PM 41.6489 -87.9261 61° Northeast 206 237 4,000 -393 Level Chicago Center
Sun 10:12:01 PM 41.6869 -87.8739 46° Northeast 182 209 3,200 -829 Descending Chicago Center
Sun 10:13:03 PM 41.7203 -87.8328 43° Northeast 162 186 2,300 -780 Descending Chicago Center
Sun 10:14:04 PM 41.7456 -87.8006 44° Northeast 126 145 1,600 -689 Descending Chicago Center
Sun 10:15:05 PM 41.7694 -87.7700 44° Northeast 122 140 900 -492 Descending Chicago Center
Sun 10:16:06 PM 41.7961 -87.7353 44° Northeast 122 140 600 -295 Descending Chicago Center

Login

Don't have an account? Register now (free) for customized features, flight alerts, and more!